sensor_id;sensor_type;location;lat;lon;timestamp;pressure;altitude;pressure_sealevel;temperature;humidity
13080;BME280;6606;49.154;9.280;2023-11-18T00:01:42;100519.13;;;7.40;100.00
13080;BME280;6606;49.154;9.280;2023-11-18T00:04:26;100533.53;;;7.30;100.00
13080;BME280;6606;49.154;9.280;2023-11-18T00:07:07;100526.63;;;7.24;100.00
13080;BME280;6606;49.154;9.280;2023-11-18T00:09:52;100524.78;;;7.28;100.00
13080;BME280;6606;49.154;9.280;2023-11-18T00:12:33;100524.06;;;7.21;100.00
13080;BME280;6606;49.154;9.280;2023-11-18T00:15:16;100519.53;;;7.26;100.00
13080;BME280;6606;49.154;9.280;2023-11-18T00:17:58;100526.69;;;7.23;100.00
13080;BME280;6606;49.154;9.280;2023-11-18T00:20:41;100516.84;;;7.28;100.00
13080;BME280;6606;49.154;9.280;2023-11-18T00:23:23;100517.91;;;7.21;100.00
13080;BME280;6606;49.154;9.280;2023-11-18T00:26:07;100518.63;;;7.27;100.00
13080;BME280;6606;49.154;9.280;2023-11-18T00:28:50;100520.06;;;7.38;100.00
13080;BME280;6606;49.154;9.280;2023-11-18T00:31:32;100518.13;;;7.44;100.00
13080;BME280;6606;49.154;9.280;2023-11-18T00:34:14;100520.88;;;7.41;100.00
13080;BME280;6606;49.154;9.280;2023-11-18T00:36:57;100518.34;;;7.37;100.00
13080;BME280;6606;49.154;9.280;2023-11-18T00:39:38;100513.28;;;7.29;100.00
13080;BME280;6606;49.154;9.280;2023-11-18T00:42:20;100509.78;;;7.28;100.00
13080;BME280;6606;49.154;9.280;2023-11-18T00:45:02;100507.91;;;7.32;100.00
13080;BME280;6606;49.154;9.280;2023-11-18T00:47:45;100499.00;;;7.36;100.00
13080;BME280;6606;49.154;9.280;2023-11-18T00:50:27;100507.09;;;7.30;100.00
13080;BME280;6606;49.154;9.280;2023-11-18T00:53:10;100507.44;;;7.18;100.00
13080;BME280;6606;49.154;9.280;2023-11-18T00:55:51;100512.72;;;7.18;100.00
13080;BME280;6606;49.154;9.280;2023-11-18T00:58:34;100513.28;;;7.29;100.00
13080;BME280;6606;49.154;9.280;2023-11-18T01:01:19;100511.34;;;7.36;100.00
13080;BME280;6606;49.154;9.280;2023-11-18T01:04:02;100515.81;;;7.34;100.00
13080;BME280;6606;49.154;9.280;2023-11-18T01:06:44;100521.22;;;7.29;100.00
13080;BME280;6606;49.154;9.280;2023-11-18T01:09:27;100519.53;;;7.26;100.00
13080;BME280;6606;49.154;9.280;2023-11-18T01:12:09;100521.22;;;7.29;100.00
13080;BME280;6606;49.154;9.280;2023-11-18T01:14:51;100528.66;;;7.15;100.00
13080;BME280;6606;49.154;9.280;2023-11-18T01:17:32;100532.28;;;7.11;100.00
13080;BME280;6606;49.154;9.280;2023-11-18T01:20:14;100532.13;;;7.17;100.00
13080;BME280;6606;49.154;9.280;2023-11-18T01:23:01;100535.44;;;7.25;100.00
13080;BME280;6606;49.154;9.280;2023-11-18T01:25:44;100531.88;;;7.26;100.00
13080;BME280;6606;49.154;9.280;2023-11-18T01:28:26;100539.91;;;7.21;100.00
13080;BME280;6606;49.154;9.280;2023-11-18T01:31:10;100540.56;;;7.29;100.00
13080;BME280;6606;49.154;9.280;2023-11-18T01:33:52;100544.16;;;7.27;100.00
13080;BME280;6606;49.154;9.280;2023-11-18T01:36:36;100542.53;;;7.23;100.00
13080;BME280;6606;49.154;9.280;2023-11-18T01:39:18;100542.53;;;7.23;100.00
13080;BME280;6606;49.154;9.280;2023-11-18T01:42:01;100549.53;;;7.24;100.00
13080;BME280;6606;49.154;9.280;2023-11-18T01:44:43;100547.91;;;7.20;100.00
13080;BME280;6606;49.154;9.280;2023-11-18T01:47:26;100540.19;;;7.12;100.00
13080;BME280;6606;49.154;9.280;2023-11-18T01:50:09;100539.25;;;7.13;100.00
13080;BME280;6606;49.154;9.280;2023-11-18T01:52:52;100547.63;;;7.29;100.00
13080;BME280;6606;49.154;9.280;2023-11-18T01:55:34;100542.44;;;7.26;100.00
13080;BME280;6606;49.154;9.280;2023-11-18T01:58:17;100538.81;;;7.30;100.00
13080;BME280;6606;49.154;9.280;2023-11-18T02:01:00;100538.63;;;7.36;100.00
13080;BME280;6606;49.154;9.280;2023-11-18T02:03:42;100543.94;;;7.35;100.00
13080;BME280;6606;49.154;9.280;2023-11-18T02:06:24;100551.63;;;7.44;100.00
13080;BME280;6606;49.154;9.280;2023-11-18T02:09:05;100550.91;;;7.37;100.00
13080;BME280;6606;49.154;9.280;2023-11-18T02:11:53;100549.81;;;7.46;100.00
13080;BME280;6606;49.154;9.280;2023-11-18T02:14:39;100545.63;;;7.37;100.00
13080;BME280;6606;49.154;9.280;2023-11-18T02:17:22;100545.50;;;7.42;100.00
13080;BME280;6606;49.154;9.280;2023-11-18T02:20:07;100552.69;;;7.38;100.00
13080;BME280;6606;49.154;9.280;2023-11-18T02:22:56;100556.94;;;7.42;100.00
13080;BME280;6606;49.154;9.280;2023-11-18T02:25:44;100554.22;;;7.45;100.00
13080;BME280;6606;49.154;9.280;2023-11-18T02:28:26;100547.28;;;7.41;100.00
13080;BME280;6606;49.154;9.280;2023-11-18T02:31:13;100555.22;;;7.41;100.00
13080;BME280;6606;49.154;9.280;2023-11-18T02:34:01;100546.44;;;7.41;100.00
13080;BME280;6606;49.154;9.280;2023-11-18T02:36:46;100547.13;;;7.47;100.00
13080;BME280;6606;49.154;9.280;2023-11-18T02:39:36;100547.38;;;7.38;100.00
13080;BME280;6606;49.154;9.280;2023-11-18T02:42:23;100546.66;;;7.33;100.00
13080;BME280;6606;49.154;9.280;2023-11-18T02:45:07;100555.22;;;7.41;100.00
13080;BME280;6606;49.154;9.280;2023-11-18T02:47:52;100552.41;;;7.47;100.00
13080;BME280;6606;49.154;9.280;2023-11-18T02:50:37;100549.72;;;7.49;100.00
13080;BME280;6606;49.154;9.280;2023-11-18T02:53:21;100554.94;;;7.50;100.00
13080;BME280;6606;49.154;9.280;2023-11-18T02:56:06;100553.97;;;7.55;100.00
13080;BME280;6606;49.154;9.280;2023-11-18T02:58:50;100547.59;;;7.62;100.00
13080;BME280;6606;49.154;9.280;2023-11-18T03:01:32;100547.50;;;7.65;100.00
13080;BME280;6606;49.154;9.280;2023-11-18T03:04:14;100555.44;;;7.65;100.00
13080;BME280;6606;49.154;9.280;2023-11-18T03:06:56;100546.56;;;7.66;100.00
13080;BME280;6606;49.154;9.280;2023-11-18T03:09:38;100537.59;;;7.71;100.00
13080;BME280;6606;49.154;9.280;2023-11-18T03:12:20;100531.78;;;7.59;100.00
13080;BME280;6606;49.154;9.280;2023-11-18T03:15:04;100535.63;;;7.48;100.00
13080;BME280;6606;49.154;9.280;2023-11-18T03:17:47;100549.72;;;7.49;100.00
13080;BME280;6606;49.154;9.280;2023-11-18T03:20:30;100543.53;;;7.48;100.00
13080;BME280;6606;49.154;9.280;2023-11-18T03:23:12;100542.53;;;7.54;100.00
13080;BME280;6606;49.154;9.280;2023-11-18T03:25:53;100543.63;;;7.45;100.00
13080;BME280;6606;49.154;9.280;2023-11-18T03:28:36;100549.72;;;7.49;100.00
13080;BME280;6606;49.154;9.280;2023-11-18T03:31:20;100545.28;;;7.49;100.00
13080;BME280;6606;49.154;9.280;2023-11-18T03:34:01;100548.06;;;7.45;100.00
13080;BME280;6606;49.154;9.280;2023-11-18T03:36:44;100536.31;;;7.55;100.00
13080;BME280;6606;49.154;9.280;2023-11-18T03:39:27;100537.03;;;7.62;100.00
13080;BME280;6606;49.154;9.280;2023-11-18T03:42:09;100538.19;;;7.52;100.00
13080;BME280;6606;49.154;9.280;2023-11-18T03:44:50;100548.84;;;7.48;100.00
13080;BME280;6606;49.154;9.280;2023-11-18T03:47:34;100542.88;;;7.42;100.00
13080;BME280;6606;49.154;9.280;2023-11-18T03:50:15;100549.09;;;7.39;100.00
13080;BME280;6606;49.154;9.280;2023-11-18T03:52:57;100547.13;;;7.47;100.00
13080;BME280;6606;49.154;9.280;2023-11-18T03:55:39;100553.22;;;7.49;100.00
13080;BME280;6606;49.154;9.280;2023-11-18T03:58:21;100540.25;;;7.40;100.00
13080;BME280;6606;49.154;9.280;2023-11-18T04:01:04;100545.81;;;7.31;100.00
13080;BME280;6606;49.154;9.280;2023-11-18T04:03:48;100540.72;;;7.25;100.00
13080;BME280;6606;49.154;9.280;2023-11-18T04:06:29;100549.72;;;7.18;100.00
13080;BME280;6606;49.154;9.280;2023-11-18T04:09:11;100551.53;;;7.16;100.00
13080;BME280;6606;49.154;9.280;2023-11-18T04:11:53;100546.78;;;7.28;100.00
13080;BME280;6606;49.154;9.280;2023-11-18T04:14:35;100549.97;;;7.40;100.00
13080;BME280;6606;49.154;9.280;2023-11-18T04:17:17;100539.81;;;7.24;100.00
13080;BME280;6606;49.154;9.280;2023-11-18T04:20:15;100546.78;;;7.28;100.00
13080;BME280;6606;49.154;9.280;2023-11-18T04:22:57;100545.91;;;7.28;100.00
13080;BME280;6606;49.154;9.280;2023-11-18T04:25:38;100540.56;;;7.29;100.00
13080;BME280;6606;49.154;9.280;2023-11-18T04:28:20;100534.53;;;7.24;100.00
13080;BME280;6606;49.154;9.280;2023-11-18T04:31:02;100537.06;;;7.29;100.00
13080;BME280;6606;49.154;9.280;2023-11-18T04:33:45;100544.25;;;7.24;100.00
13080;BME280;6606;49.154;9.280;2023-11-18T04:36:28;100544.34;;;7.21;100.00
13080;BME280;6606;49.154;9.280;2023-11-18T04:39:21;100553.28;;;7.17;100.00
13080;BME280;6606;49.154;9.280;2023-11-18T04:42:03;100547.06;;;7.18;100.00
13080;BME280;6606;49.154;9.280;2023-11-18T04:44:45;100543.56;;;7.17;100.00
13080;BME280;6606;49.154;9.280;2023-11-18T04:47:27;100552.38;;;7.16;100.00
13080;BME280;6606;49.154;9.280;2023-11-18T04:50:10;100548.03;;;7.14;100.00
13080;BME280;6606;49.154;9.280;2023-11-18T04:52:53;100549.13;;;7.05;100.00
13080;BME280;6606;49.154;9.280;2023-11-18T04:55:35;100536.22;;;6.94;100.00
13080;BME280;6606;49.154;9.280;2023-11-18T04:58:17;100524.69;;;6.98;100.00
13080;BME280;6606;49.154;9.280;2023-11-18T05:00:59;100539.94;;;6.87;100.00
13080;BME280;6606;49.154;9.280;2023-11-18T05:03:41;100542.25;;;6.67;100.00
13080;BME280;6606;49.154;9.280;2023-11-18T05:06:22;100544.22;;;6.91;100.00
13080;BME280;6606;49.154;9.280;2023-11-18T05:09:05;100548.69;;;6.89;100.00
13080;BME280;6606;49.154;9.280;2023-11-18T05:11:48;100554.50;;;7.02;100.00
13080;BME280;6606;49.154;9.280;2023-11-18T05:14:30;100545.84;;;6.97;100.00
13080;BME280;6606;49.154;9.280;2023-11-18T05:17:12;100546.63;;;7.00;100.00
13080;BME280;6606;49.154;9.280;2023-11-18T05:19:54;100559.13;;;6.94;100.00
13080;BME280;6606;49.154;9.280;2023-11-18T05:22:36;100561.13;;;6.84;100.00
13080;BME280;6606;49.154;9.280;2023-11-18T05:25:19;100553.47;;;6.75;100.00
13080;BME280;6606;49.154;9.280;2023-11-18T05:28:01;100556.66;;;6.53;100.00
13080;BME280;6606;49.154;9.280;2023-11-18T05:30:44;100557.69;;;6.46;100.00
13080;BME280;6606;49.154;9.280;2023-11-18T05:33:25;100555.91;;;6.47;100.00
13080;BME280;6606;49.154;9.280;2023-11-18T05:36:08;100544.72;;;6.37;100.00
13080;BME280;6606;49.154;9.280;2023-11-18T05:38:52;100543.94;;;6.33;100.00
13080;BME280;6606;49.154;9.280;2023-11-18T05:41:35;100543.34;;;6.21;100.00
13080;BME280;6606;49.154;9.280;2023-11-18T05:44:19;100556.63;;;6.16;100.00
13080;BME280;6606;49.154;9.280;2023-11-18T05:47:09;100546.47;;;6.01;100.00
13080;BME280;6606;49.154;9.280;2023-11-18T05:49:52;100545.25;;;5.77;100.00
13080;BME280;6606;49.154;9.280;2023-11-18T05:52:34;100544.50;;;5.68;100.00
13080;BME280;6606;49.154;9.280;2023-11-18T05:55:16;100541.38;;;5.51;100.00
13080;BME280;6606;49.154;9.280;2023-11-18T05:57:59;100545.47;;;5.22;100.00
13080;BME280;6606;49.154;9.280;2023-11-18T06:00:41;100528.03;;;5.15;100.00
13080;BME280;6606;49.154;9.280;2023-11-18T06:03:23;100536.50;;;5.31;100.00
13080;BME280;6606;49.154;9.280;2023-11-18T06:06:06;100529.66;;;5.22;100.00
13080;BME280;6606;49.154;9.280;2023-11-18T06:08:48;100533.25;;;5.18;100.00
13080;BME280;6606;49.154;9.280;2023-11-18T06:11:30;100525.25;;;5.24;100.00
13080;BME280;6606;49.154;9.280;2023-11-18T06:14:13;100529.28;;;5.42;100.00
13080;BME280;6606;49.154;9.280;2023-11-18T06:16:55;100528.16;;;5.52;100.00
13080;BME280;6606;49.154;9.280;2023-11-18T06:19:40;100539.53;;;5.56;100.00
13080;BME280;6606;49.154;9.280;2023-11-18T06:22:21;100546.22;;;5.71;100.00
13080;BME280;6606;49.154;9.280;2023-11-18T06:25:04;100534.72;;;5.77;100.00
13080;BME280;6606;49.154;9.280;2023-11-18T06:27:47;100533.56;;;5.87;100.00
13080;BME280;6606;49.154;9.280;2023-11-18T06:30:32;100533.47;;;5.91;100.00
13080;BME280;6606;49.154;9.280;2023-11-18T06:33:13;100553.50;;;6.00;100.00
13080;BME280;6606;49.154;9.280;2023-11-18T06:35:55;100548.03;;;6.08;100.00
13080;BME280;6606;49.154;9.280;2023-11-18T06:38:37;100556.09;;;6.03;100.00
13080;BME280;6606;49.154;9.280;2023-11-18T06:41:20;100560.94;;;6.22;100.00
13080;BME280;6606;49.154;9.280;2023-11-18T06:44:04;100565.97;;;6.31;100.00
13080;BME280;6606;49.154;9.280;2023-11-18T06:46:54;100574.81;;;6.30;100.00
13080;BME280;6606;49.154;9.280;2023-11-18T06:49:36;100561.56;;;6.31;100.00
13080;BME280;6606;49.154;9.280;2023-11-18T06:52:17;100558.81;;;6.37;100.00
13080;BME280;6606;49.154;9.280;2023-11-18T06:54:59;100552.34;;;6.49;100.00
13080;BME280;6606;49.154;9.280;2023-11-18T06:57:41;100547.66;;;6.60;100.00
13080;BME280;6606;49.154;9.280;2023-11-18T07:00:23;100541.69;;;6.54;100.00
13080;BME280;6606;49.154;9.280;2023-11-18T07:03:10;100550.97;;;6.69;100.00
13080;BME280;6606;49.154;9.280;2023-11-18T07:05:52;100547.53;;;6.67;100.00
13080;BME280;6606;49.154;9.280;2023-11-18T07:08:34;100555.63;;;6.59;100.00
13080;BME280;6606;49.154;9.280;2023-11-18T07:11:19;100567.13;;;6.56;100.00
13080;BME280;6606;49.154;9.280;2023-11-18T07:14:01;100571.13;;;6.73;100.00
13080;BME280;6606;49.154;9.280;2023-11-18T07:16:46;100577.94;;;6.81;100.00
13080;BME280;6606;49.154;9.280;2023-11-18T07:19:49;100586.50;;;6.91;100.00
13080;BME280;6606;49.154;9.280;2023-11-18T07:22:30;100582.94;;;6.92;100.00
13080;BME280;6606;49.154;9.280;2023-11-18T07:25:12;100578.16;;;7.06;100.00
13080;BME280;6606;49.154;9.280;2023-11-18T07:27:54;100589.16;;;7.24;100.00
13080;BME280;6606;49.154;9.280;2023-11-18T07:30:36;100579.09;;;7.38;100.00
13080;BME280;6606;49.154;9.280;2023-11-18T07:33:18;100576.69;;;7.62;100.00
13080;BME280;6606;49.154;9.280;2023-11-18T07:36:02;100578.94;;;7.74;100.00
13080;BME280;6606;49.154;9.280;2023-11-18T07:38:53;100570.38;;;7.95;100.00
13080;BME280;6606;49.154;9.280;2023-11-18T07:41:35;100561.38;;;8.01;100.00
13080;BME280;6606;49.154;9.280;2023-11-18T07:44:17;100557.88;;;8.01;100.00
13080;BME280;6606;49.154;9.280;2023-11-18T07:46:59;100552.69;;;7.68;100.00
13080;BME280;6606;49.154;9.280;2023-11-18T07:49:41;100547.75;;;7.85;100.00
13080;BME280;6606;49.154;9.280;2023-11-18T07:52:24;100549.72;;;7.79;100.00
13080;BME280;6606;49.154;9.280;2023-11-18T07:55:09;100556.19;;;7.98;100.00
13080;BME280;6606;49.154;9.280;2023-11-18T07:57:53;100547.84;;;7.82;100.00
13080;BME280;6606;49.154;9.280;2023-11-18T08:00:35;100566.34;;;7.82;100.00
13080;BME280;6606;49.154;9.280;2023-11-18T08:03:17;100575.03;;;7.87;100.00
13080;BME280;6606;49.154;9.280;2023-11-18T08:06:00;100575.09;;;7.86;100.00
13080;BME280;6606;49.154;9.280;2023-11-18T08:08:45;100566.25;;;7.85;100.00
13080;BME280;6606;49.154;9.280;2023-11-18T08:11:28;100574.38;;;8.09;100.00
13080;BME280;6606;49.154;9.280;2023-11-18T08:14:10;100577.00;;;8.09;100.00
13080;BME280;6606;49.154;9.280;2023-11-18T08:16:52;100578.97;;;8.30;100.00
13080;BME280;6606;49.154;9.280;2023-11-18T08:19:33;100565.56;;;8.36;100.00
13080;BME280;6606;49.154;9.280;2023-11-18T08:22:16;100566.78;;;8.26;100.00
13080;BME280;6606;49.154;9.280;2023-11-18T08:25:00;100561.72;;;8.19;100.00
13080;BME280;6606;49.154;9.280;2023-11-18T08:27:42;100565.69;;;8.33;100.00
13080;BME280;6606;49.154;9.280;2023-11-18T08:30:26;100570.56;;;8.46;100.00
13080;BME280;6606;49.154;9.280;2023-11-18T08:33:08;100565.97;;;8.77;100.00
13080;BME280;6606;49.154;9.280;2023-11-18T08:35:50;100566.41;;;8.65;100.00
13080;BME280;6606;49.154;9.280;2023-11-18T08:38:33;100558.63;;;8.60;100.00
13080;BME280;6606;49.154;9.280;2023-11-18T08:41:16;100567.66;;;8.53;100.00
13080;BME280;6606;49.154;9.280;2023-11-18T08:44:00;100573.94;;;8.51;100.00
13080;BME280;6606;49.154;9.280;2023-11-18T08:46:42;100562.72;;;8.69;100.00
13080;BME280;6606;49.154;9.280;2023-11-18T08:49:24;100569.84;;;8.41;100.00
13080;BME280;6606;49.154;9.280;2023-11-18T08:52:10;100571.88;;;8.32;100.00
13080;BME280;6606;49.154;9.280;2023-11-18T08:54:53;100568.69;;;8.49;100.00
13080;BME280;6606;49.154;9.280;2023-11-18T08:57:53;100553.25;;;8.62;100.00
13080;BME280;6606;49.154;9.280;2023-11-18T09:00:39;100551.03;;;8.50;100.00
13080;BME280;6606;49.154;9.280;2023-11-18T09:03:26;100562.44;;;8.52;100.00
13080;BME280;6606;49.154;9.280;2023-11-18T09:06:15;100553.09;;;8.67;100.00
13080;BME280;6606;49.154;9.280;2023-11-18T09:08:58;100566.09;;;8.74;100.00
13080;BME280;6606;49.154;9.280;2023-11-18T09:11:46;100564.38;;;8.73;100.00
13080;BME280;6606;49.154;9.280;2023-11-18T09:14:30;100574.72;;;8.54;100.00
13080;BME280;6606;49.154;9.280;2023-11-18T09:17:14;100564.88;;;8.58;100.00
13080;BME280;6606;49.154;9.280;2023-11-18T09:19:55;100574.34;;;8.92;100.00
13080;BME280;6606;49.154;9.280;2023-11-18T09:22:37;100564.59;;;9.19;100.00
13080;BME280;6606;49.154;9.280;2023-11-18T09:25:19;100559.13;;;9.23;100.00
13080;BME280;6606;49.154;9.280;2023-11-18T09:28:02;100562.16;;;9.13;100.00
13080;BME280;6606;49.154;9.280;2023-11-18T09:30:46;100551.88;;;9.29;100.00
13080;BME280;6606;49.154;9.280;2023-11-18T09:33:33;100558.66;;;9.36;100.00
13080;BME280;6606;49.154;9.280;2023-11-18T09:36:15;100559.63;;;9.33;100.00
13080;BME280;6606;49.154;9.280;2023-11-18T09:38:58;100554.53;;;9.29;100.00
13080;BME280;6606;49.154;9.280;2023-11-18T09:41:40;100555.13;;;9.37;100.00
13080;BME280;6606;49.154;9.280;2023-11-18T09:44:22;100559.16;;;9.47;100.00
13080;BME280;6606;49.154;9.280;2023-11-18T09:47:08;100554.06;;;9.41;100.00
13080;BME280;6606;49.154;9.280;2023-11-18T09:49:56;100553.66;;;9.52;100.00
13080;BME280;6606;49.154;9.280;2023-11-18T09:52:42;100550.41;;;9.45;100.00
13080;BME280;6606;49.154;9.280;2023-11-18T09:55:38;100544.72;;;9.78;100.00
13080;BME280;6606;49.154;9.280;2023-11-18T09:58:21;100547.13;;;10.07;100.00
13080;BME280;6606;49.154;9.280;2023-11-18T10:01:05;100545.34;;;10.08;100.00
13080;BME280;6606;49.154;9.280;2023-11-18T10:03:48;100556.34;;;9.97;100.00
13080;BME280;6606;49.154;9.280;2023-11-18T10:06:34;100563.00;;;9.85;100.00
13080;BME280;6606;49.154;9.280;2023-11-18T10:09:16;100560.59;;;9.79;100.00
13080;BME280;6606;49.154;9.280;2023-11-18T10:12:07;100554.22;;;10.29;100.00
13080;BME280;6606;49.154;9.280;2023-11-18T10:14:49;100545.75;;;10.41;100.00
13080;BME280;6606;49.154;9.280;2023-11-18T10:17:32;100545.84;;;10.40;100.00
13080;BME280;6606;49.154;9.280;2023-11-18T10:20:18;100545.78;;;10.19;100.00
13080;BME280;6606;49.154;9.280;2023-11-18T10:23:06;100535.78;;;10.48;100.00
13080;BME280;6606;49.154;9.280;2023-11-18T10:25:52;100537.66;;;10.44;100.00
13080;BME280;6606;49.154;9.280;2023-11-18T10:28:35;100543.19;;;10.40;100.00
13080;BME280;6606;49.154;9.280;2023-11-18T10:31:18;100536.53;;;10.50;100.00
13080;BME280;6606;49.154;9.280;2023-11-18T10:34:00;100537.06;;;10.60;100.00
13080;BME280;6606;49.154;9.280;2023-11-18T10:37:01;100527.34;;;10.36;100.00
13080;BME280;6606;49.154;9.280;2023-11-18T10:39:53;100529.34;;;10.31;100.00
13080;BME280;6606;49.154;9.280;2023-11-18T10:42:35;100535.63;;;10.29;100.00
13080;BME280;6606;49.154;9.280;2023-11-18T10:45:23;100542.06;;;10.01;100.00
13080;BME280;6606;49.154;9.280;2023-11-18T10:48:08;100525.75;;;10.10;100.00
13080;BME280;6606;49.154;9.280;2023-11-18T10:50:50;100523.44;;;10.03;100.00
13080;BME280;6606;49.154;9.280;2023-11-18T10:53:33;100530.44;;;10.04;100.00
13080;BME280;6606;49.154;9.280;2023-11-18T10:56:17;100528.56;;;9.84;100.00
13080;BME280;6606;49.154;9.280;2023-11-18T10:59:05;100529.47;;;9.84;100.00
13080;BME280;6606;49.154;9.280;2023-11-18T11:01:54;100524.84;;;10.11;100.00
13080;BME280;6606;49.154;9.280;2023-11-18T11:04:45;100522.78;;;10.18;100.00
13080;BME280;6606;49.154;9.280;2023-11-18T11:07:29;100528.59;;;10.28;100.00
13080;BME280;6606;49.154;9.280;2023-11-18T11:10:16;100524.88;;;10.10;100.00
13080;BME280;6606;49.154;9.280;2023-11-18T11:13:07;100517.59;;;9.93;100.00
13080;BME280;6606;49.154;9.280;2023-11-18T11:15:51;100526.13;;;10.01;100.00
13080;BME280;6606;49.154;9.280;2023-11-18T11:18:37;100520.69;;;10.26;100.00
13080;BME280;6606;49.154;9.280;2023-11-18T11:21:29;100511.44;;;10.58;100.00
13080;BME280;6606;49.154;9.280;2023-11-18T11:24:20;100504.22;;;10.83;100.00
13080;BME280;6606;49.154;9.280;2023-11-18T11:27:22;100504.16;;;10.64;100.00
13080;BME280;6606;49.154;9.280;2023-11-18T11:30:14;100495.25;;;10.85;100.00
13080;BME280;6606;49.154;9.280;2023-11-18T11:33:05;100490.31;;;10.96;100.00
13080;BME280;6606;49.154;9.280;2023-11-18T11:35:55;100478.53;;;11.02;100.00
13080;BME280;6606;49.154;9.280;2023-11-18T11:38:38;100483.69;;;10.86;100.00
13080;BME280;6606;49.154;9.280;2023-11-18T11:41:20;100475.19;;;10.78;100.00
13080;BME280;6606;49.154;9.280;2023-11-18T11:44:11;100481.09;;;10.64;100.00
13080;BME280;6606;49.154;9.280;2023-11-18T11:46:53;100471.13;;;10.69;100.00
13080;BME280;6606;49.154;9.280;2023-11-18T11:49:43;100464.22;;;10.65;100.00
13080;BME280;6606;49.154;9.280;2023-11-18T11:52:30;100469.41;;;10.46;100.00
13080;BME280;6606;49.154;9.280;2023-11-18T11:55:21;100457.09;;;10.86;100.00
13080;BME280;6606;49.154;9.280;2023-11-18T11:58:04;100458.41;;;10.96;100.00
13080;BME280;6606;49.154;9.280;2023-11-18T12:00:54;100441.06;;;10.69;100.00
13080;BME280;6606;49.154;9.280;2023-11-18T12:03:38;100443.63;;;10.70;100.00
13080;BME280;6606;49.154;9.280;2023-11-18T12:06:23;100440.78;;;10.75;100.00
13080;BME280;6606;49.154;9.280;2023-11-18T12:09:09;100432.84;;;10.53;100.00
13080;BME280;6606;49.154;9.280;2023-11-18T12:11:52;100428.53;;;10.50;100.00
13080;BME280;6606;49.154;9.280;2023-11-18T12:14:49;100416.94;;;10.31;100.00
13080;BME280;6606;49.154;9.280;2023-11-18T12:18:09;100413.16;;;10.36;100.00
13080;BME280;6606;49.154;9.280;2023-11-18T12:20:53;100396.47;;;10.34;100.00
13080;BME280;6606;49.154;9.280;2023-11-18T12:26:56;100383.50;;;10.06;100.00
13080;BME280;6606;49.154;9.280;2023-11-18T12:29:41;100378.56;;;10.18;100.00
13080;BME280;6606;49.154;9.280;2023-11-18T12:35:55;100375.78;;;10.21;100.00
13080;BME280;6606;49.154;9.280;2023-11-18T12:39:05;100376.84;;;9.96;100.00
13080;BME280;6606;49.154;9.280;2023-11-18T12:42:01;100381.19;;;9.97;100.00
13080;BME280;6606;49.154;9.280;2023-11-18T12:45:08;100380.47;;;9.93;100.00
13080;BME280;6606;49.154;9.280;2023-11-18T12:47:55;100372.19;;;10.01;100.00
13080;BME280;6606;49.154;9.280;2023-11-18T12:50:38;100374.34;;;9.71;100.00
13080;BME280;6606;49.154;9.280;2023-11-18T12:53:23;100377.78;;;9.73;100.00
13080;BME280;6606;49.154;9.280;2023-11-18T12:56:06;100368.41;;;9.64;100.00
13080;BME280;6606;49.154;9.280;2023-11-18T12:58:58;100369.28;;;9.65;100.00
13080;BME280;6606;49.154;9.280;2023-11-18T13:01:40;100358.47;;;9.69;100.00
13080;BME280;6606;49.154;9.280;2023-11-18T13:04:23;100349.47;;;9.74;100.00
13080;BME280;6606;49.154;9.280;2023-11-18T13:07:05;100347.69;;;9.74;100.00
13080;BME280;6606;49.154;9.280;2023-11-18T13:09:50;100355.69;;;9.73;100.00
13080;BME280;6606;49.154;9.280;2023-11-18T13:12:34;100361.53;;;9.81;100.00
13080;BME280;6606;49.154;9.280;2023-11-18T13:15:18;100348.53;;;9.75;100.00
13080;BME280;6606;49.154;9.280;2023-11-18T13:18:02;100346.69;;;9.55;100.00
13080;BME280;6606;49.154;9.280;2023-11-18T13:20:55;100335.25;;;9.32;100.00
13080;BME280;6606;49.154;9.280;2023-11-18T13:23:37;100331.47;;;9.38;100.00
13080;BME280;6606;49.154;9.280;2023-11-18T13:26:20;100322.25;;;9.26;100.00
13080;BME280;6606;49.154;9.280;2023-11-18T13:29:03;100313.78;;;9.16;100.00
13080;BME280;6606;49.154;9.280;2023-11-18T13:31:46;100304.28;;;9.11;100.00
13080;BME280;6606;49.154;9.280;2023-11-18T13:34:29;100308.59;;;9.13;100.00
13080;BME280;6606;49.154;9.280;2023-11-18T13:37:13;100304.53;;;9.26;100.00
13080;BME280;6606;49.154;9.280;2023-11-18T13:39:57;100290.75;;;9.18;100.00
13080;BME280;6606;49.154;9.280;2023-11-18T13:42:40;100280.25;;;9.15;100.00
13080;BME280;6606;49.154;9.280;2023-11-18T13:45:22;100279.19;;;9.19;100.00
13080;BME280;6606;49.154;9.280;2023-11-18T13:48:06;100275.25;;;9.30;100.00
13080;BME280;6606;49.154;9.280;2023-11-18T13:50:49;100270.38;;;9.19;100.00
13080;BME280;6606;49.154;9.280;2023-11-18T13:53:31;100273.41;;;9.32;100.00
13080;BME280;6606;49.154;9.280;2023-11-18T13:56:13;100271.13;;;9.00;100.00
13080;BME280;6606;49.154;9.280;2023-11-18T13:58:56;100274.97;;;9.15;100.00
13080;BME280;6606;49.154;9.280;2023-11-18T14:01:39;100271.97;;;9.23;100.00
13080;BME280;6606;49.154;9.280;2023-11-18T14:04:23;100274.53;;;9.26;100.00
13080;BME280;6606;49.154;9.280;2023-11-18T14:07:05;100268.56;;;9.41;100.00
13080;BME280;6606;49.154;9.280;2023-11-18T14:09:49;100254.72;;;9.35;100.00
13080;BME280;6606;49.154;9.280;2023-11-18T14:12:35;100257.78;;;9.46;100.00
13080;BME280;6606;49.154;9.280;2023-11-18T14:15:19;100259.84;;;9.17;100.00
13080;BME280;6606;49.154;9.280;2023-11-18T14:18:01;100257.69;;;9.05;100.00
13080;BME280;6606;49.154;9.280;2023-11-18T14:20:44;100257.16;;;8.95;100.00
13080;BME280;6606;49.154;9.280;2023-11-18T14:23:29;100248.56;;;8.89;100.00
13080;BME280;6606;49.154;9.280;2023-11-18T14:26:11;100244.69;;;8.75;100.00
13080;BME280;6606;49.154;9.280;2023-11-18T14:28:53;100240.75;;;8.86;100.00
13080;BME280;6606;49.154;9.280;2023-11-18T14:31:36;100245.94;;;8.89;100.00
13080;BME280;6606;49.154;9.280;2023-11-18T14:34:18;100237.41;;;8.80;100.00